Time;durP1;ratioP1;P1;durP2;ratioP2;P2;SDS_P1;SDS_P2;PMS_P1;PMS_P2;Temp;Humidity;BMP_temperature;BMP_pressure;BME280_temperature;BME280_humidity;BME280_pressure;Samples;Min_cycle;Max_cycle;Signal;HPM_P1;HPM_P2
2022/04/11 00:00:08;;;;;;;10.33;9.37;;;;;;;;;;5039844;28;20576;-77
2022/04/11 00:02:38;;;;;;;10.57;9.47;;;;;;;;;;5015428;28;20214;-77
2022/04/11 00:05:11;;;;;;;9.53;8.67;;;;;;;;;;5020667;28;20199;-77
2022/04/11 00:07:40;;;;;;;9.60;8.70;;;;;;;;;;5025103;28;20198;-77
2022/04/11 00:10:08;;;;;;;9.73;8.80;;;;;;;;;;5040359;28;20206;-76
2022/04/11 00:12:37;;;;;;;9.23;8.33;;;;;;;;;;5035876;28;20268;-77
2022/04/11 00:15:07;;;;;;;8.80;8.00;;;;;;;;;;5019800;28;20213;-78
2022/04/11 00:17:44;;;;;;;10.40;9.30;;;;;;;;;;5019352;28;20205;-77
2022/04/11 00:20:15;;;;;;;11.27;9.37;;;;;;;;;;5017864;28;20289;-77
2022/04/11 00:22:44;;;;;;;12.17;10.17;;;;;;;;;;5034934;28;20241;-77
2022/04/11 00:25:11;;;;;;;12.20;9.73;;;;;;;;;;5037657;28;20578;-77
2022/04/11 00:27:39;;;;;;;10.87;9.40;;;;;;;;;;5038573;22;20230;-75
2022/04/11 00:30:06;;;;;;;11.83;10.07;;;;;;;;;;5011495;28;20198;-75
2022/04/11 00:32:33;;;;;;;10.83;9.50;;;;;;;;;;5011550;28;20294;-75
2022/04/11 00:35:01;;;;;;;11.37;9.47;;;;;;;;;;5011375;28;20261;-75
2022/04/11 00:37:29;;;;;;;10.77;9.27;;;;;;;;;;5012256;28;20242;-77
2022/04/11 00:39:56;;;;;;;10.23;8.97;;;;;;;;;;5012335;28;20208;-77
2022/04/11 00:42:28;;;;;;;10.90;9.30;;;;;;;;;;5011937;28;20313;-77
2022/04/11 00:44:55;;;;;;;10.53;8.97;;;;;;;;;;4995830;28;20195;-77
2022/04/11 00:47:22;;;;;;;10.67;9.23;;;;;;;;;;5003643;28;20305;-75
2022/04/11 00:49:49;;;;;;;10.77;8.90;;;;;;;;;;5008686;28;20245;-76
2022/04/11 00:52:17;;;;;;;10.07;9.03;;;;;;;;;;5009215;28;20293;-78
2022/04/11 00:54:45;;;;;;;9.87;8.73;;;;;;;;;;5014035;28;20311;-75
2022/04/11 00:57:13;;;;;;;9.87;8.53;;;;;;;;;;5001042;28;20226;-75
2022/04/11 00:59:40;;;;;;;10.70;9.43;;;;;;;;;;5011648;28;20318;-75
2022/04/11 01:02:08;;;;;;;12.00;10.20;;;;;;;;;;5000508;28;20370;-75
2022/04/11 01:04:35;;;;;;;10.70;9.60;;;;;;;;;;4993977;28;20201;-75
2022/04/11 01:07:02;;;;;;;10.97;9.30;;;;;;;;;;4991710;28;20243;-75
2022/04/11 01:09:29;;;;;;;10.90;9.90;;;;;;;;;;4991630;28;20203;-75
2022/04/11 01:11:58;;;;;;;9.87;8.97;;;;;;;;;;4992164;28;20254;-74
2022/04/11 01:14:25;;;;;;;9.50;8.60;;;;;;;;;;4994081;28;20205;-75
2022/04/11 01:16:53;;;;;;;10.07;9.07;;;;;;;;;;5002075;28;20222;-75
2022/04/11 01:19:21;;;;;;;10.60;9.50;;;;;;;;;;5004044;28;20273;-75
2022/04/11 01:21:49;;;;;;;9.70;8.70;;;;;;;;;;5003763;28;20238;-75
2022/04/11 01:24:19;;;;;;;10.87;8.93;;;;;;;;;;5011121;28;20202;-74
2022/04/11 01:26:47;;;;;;;10.47;9.47;;;;;;;;;;4992456;28;20231;-74
2022/04/11 01:29:14;;;;;;;10.90;9.73;;;;;;;;;;4999649;28;20293;-75
2022/04/11 01:31:41;;;;;;;10.07;9.07;;;;;;;;;;4995394;28;20292;-74
2022/04/11 01:34:09;;;;;;;10.80;9.10;;;;;;;;;;4994106;28;20203;-75
2022/04/11 01:36:36;;;;;;;11.00;9.37;;;;;;;;;;5010403;28;20261;-75
2022/04/11 01:39:04;;;;;;;10.67;9.40;;;;;;;;;;5011120;28;20203;-75
2022/04/11 01:41:32;;;;;;;10.97;9.23;;;;;;;;;;5010854;28;20210;-74
2022/04/11 01:43:59;;;;;;;10.77;9.63;;;;;;;;;;4995327;28;20219;-75
2022/04/11 01:46:26;;;;;;;11.20;9.87;;;;;;;;;;4993485;28;20255;-77
2022/04/11 01:48:53;;;;;;;10.57;9.47;;;;;;;;;;4993366;28;20230;-75
2022/04/11 01:51:22;;;;;;;11.03;9.83;;;;;;;;;;5001275;28;20252;-74
2022/04/11 01:53:49;;;;;;;10.47;9.47;;;;;;;;;;5011269;28;20202;-75
2022/04/11 01:56:18;;;;;;;11.00;9.90;;;;;;;;;;5003525;28;20298;-75
2022/04/11 01:58:45;;;;;;;10.20;9.30;;;;;;;;;;5013036;28;20289;-75
2022/04/11 02:01:12;;;;;;;11.57;10.37;;;;;;;;;;5006556;28;20295;-75
2022/04/11 02:03:41;;;;;;;10.93;9.90;;;;;;;;;;5009723;28;20276;-75
2022/04/11 02:06:11;;;;;;;10.27;8.70;;;;;;;;;;5014267;28;20223;-74
2022/04/11 02:08:38;;;;;;;11.03;10.00;;;;;;;;;;5014294;28;20202;-75
2022/04/11 02:11:05;;;;;;;10.50;9.50;;;;;;;;;;5012121;28;20207;-75
2022/04/11 02:13:34;;;;;;;11.50;9.90;;;;;;;;;;5011959;28;20197;-74
2022/04/11 02:16:04;;;;;;;10.80;9.67;;;;;;;;;;5009396;28;20225;-74
2022/04/11 02:18:32;;;;;;;10.73;9.73;;;;;;;;;;5010448;28;20198;-75
2022/04/11 02:20:59;;;;;;;11.37;10.17;;;;;;;;;;5010199;28;20202;-75
2022/04/11 02:23:26;;;;;;;11.93;10.60;;;;;;;;;;5001273;28;20284;-75
2022/04/11 02:25:53;;;;;;;11.37;10.27;;;;;;;;;;5012993;28;20198;-75
2022/04/11 02:28:21;;;;;;;10.90;9.90;;;;;;;;;;5003562;28;20226;-75
2022/04/11 02:30:50;;;;;;;10.90;9.80;;;;;;;;;;5013898;28;20210;-74
2022/04/11 02:33:17;;;;;;;11.73;10.53;;;;;;;;;;4997220;28;20192;-75
2022/04/11 02:35:44;;;;;;;12.77;10.50;;;;;;;;;;4995989;28;20274;-75
2022/04/11 02:38:11;;;;;;;11.00;9.43;;;;;;;;;;4996095;28;20238;-74
2022/04/11 02:40:39;;;;;;;10.97;9.83;;;;;;;;;;5012854;28;20198;-75
2022/04/11 02:43:06;;;;;;;10.60;9.57;;;;;;;;;;5011802;28;20238;-75
2022/04/11 02:45:33;;;;;;;10.93;9.93;;;;;;;;;;5013567;28;20195;-75
2022/04/11 02:48:01;;;;;;;10.97;9.47;;;;;;;;;;5004646;28;20218;-74
2022/04/11 02:50:29;;;;;;;11.33;9.60;;;;;;;;;;4994102;28;20203;-74
2022/04/11 02:52:56;;;;;;;11.53;9.40;;;;;;;;;;5002179;28;20222;-75
2022/04/11 02:55:23;;;;;;;11.50;10.40;;;;;;;;;;5008203;28;20202;-75
2022/04/11 02:57:50;;;;;;;10.23;9.20;;;;;;;;;;5011444;28;20258;-74
2022/04/11 03:00:18;;;;;;;10.33;9.33;;;;;;;;;;5003628;28;20201;-75
2022/04/11 03:02:45;;;;;;;11.03;9.50;;;;;;;;;;4998530;28;20262;-75
2022/04/11 03:05:16;;;;;;;10.27;9.27;;;;;;;;;;5005374;28;20290;-75
2022/04/11 03:07:43;;;;;;;10.90;9.90;;;;;;;;;;5013462;28;20227;-75
2022/04/11 03:10:11;;;;;;;10.67;9.63;;;;;;;;;;4994447;28;20290;-75
2022/04/11 03:12:38;;;;;;;10.93;9.77;;;;;;;;;;4994142;28;20214;-75
2022/04/11 03:15:06;;;;;;;10.57;9.50;;;;;;;;;;5007820;28;20207;-75
2022/04/11 03:17:34;;;;;;;10.80;9.70;;;;;;;;;;5010333;28;20317;-75
2022/04/11 03:20:01;;;;;;;11.13;9.80;;;;;;;;;;5007152;28;20194;-75
2022/04/11 03:22:29;;;;;;;11.07;9.90;;;;;;;;;;5010813;28;20207;-75
2022/04/11 03:24:57;;;;;;;12.93;9.13;;;;;;;;;;5001156;28;20285;-75
2022/04/11 03:27:24;;;;;;;12.13;10.30;;;;;;;;;;5003678;28;20306;-74
2022/04/11 03:29:51;;;;;;;10.50;9.40;;;;;;;;;;5003292;28;20266;-74
2022/04/11 03:32:18;;;;;;;11.23;9.80;;;;;;;;;;5001105;28;20200;-74
2022/04/11 03:34:45;;;;;;;10.60;9.60;;;;;;;;;;5000173;28;20202;-75
2022/04/11 03:37:13;;;;;;;10.67;9.67;;;;;;;;;;5003110;28;20227;-74
2022/04/11 03:39:41;;;;;;;10.47;9.47;;;;;;;;;;5000145;28;20245;-75
2022/04/11 03:42:11;;;;;;;10.07;9.07;;;;;;;;;;5002980;28;20196;-74
2022/04/11 03:44:38;;;;;;;11.00;9.73;;;;;;;;;;5002635;28;20219;-75
2022/04/11 03:47:05;;;;;;;10.70;9.60;;;;;;;;;;5003594;28;20221;-74
2022/04/11 03:49:33;;;;;;;11.13;9.23;;;;;;;;;;5002519;28;20213;-74
2022/04/11 03:52:00;;;;;;;11.47;10.30;;;;;;;;;;5003748;28;20285;-75
2022/04/11 03:54:27;;;;;;;11.00;9.80;;;;;;;;;;5001101;28;20569;-74
2022/04/11 03:56:56;;;;;;;10.67;9.37;;;;;;;;;;5008157;28;20219;-74
2022/04/11 03:59:23;;;;;;;11.60;10.10;;;;;;;;;;5004524;28;20281;-75
2022/04/11 04:01:50;;;;;;;10.63;9.50;;;;;;;;;;5000891;28;20257;-75
2022/04/11 04:04:17;;;;;;;11.30;9.90;;;;;;;;;;5001548;28;20222;-75
2022/04/11 04:06:44;;;;;;;11.63;10.23;;;;;;;;;;5011224;28;20313;-75
2022/04/11 04:09:12;;;;;;;11.40;10.20;;;;;;;;;;5011367;28;20281;-74
2022/04/11 04:11:39;;;;;;;11.40;10.20;;;;;;;;;;5010601;28;20199;-75
2022/04/11 04:14:07;;;;;;;11.30;10.13;;;;;;;;;;5011018;28;20226;-75
2022/04/11 04:16:35;;;;;;;11.10;10.00;;;;;;;;;;4999280;28;20230;-75
2022/04/11 04:19:02;;;;;;;12.23;10.93;;;;;;;;;;4992219;28;20214;-75
2022/04/11 04:21:29;;;;;;;11.10;10.10;;;;;;;;;;5001050;28;20195;-75
2022/04/11 04:23:56;;;;;;;11.30;9.97;;;;;;;;;;5010396;28;20226;-75
2022/04/11 04:26:24;;;;;;;12.20;10.43;;;;;;;;;;5011600;28;20293;-74
2022/04/11 04:28:51;;;;;;;11.37;10.27;;;;;;;;;;5005752;28;20200;-75
2022/04/11 04:31:19;;;;;;;11.30;10.10;;;;;;;;;;4994349;28;20258;-74
2022/04/11 04:33:47;;;;;;;11.33;10.23;;;;;;;;;;4999506;28;20213;-74
2022/04/11 04:36:16;;;;;;;12.50;11.20;;;;;;;;;;5011191;28;20228;-80
2022/04/11 04:38:43;;;;;;;13.80;10.47;;;;;;;;;;5022196;28;20241;-75
